Time;durP1;ratioP1;P1;durP2;ratioP2;P2;SDS_P1;SDS_P2;PMS_P1;PMS_P2;Temp;Humidity;BMP_temperature;BMP_pressure;BME280_temperature;BME280_humidity;BME280_pressure;Samples;Min_cycle;Max_cycle;Signal;HPM_P1;HPM_P2
2022/06/18 00:01:51;;;;;;;9.80;6.22;;;27.00;99.90;;;;;;1863254;77;21186;-81
2022/06/18 00:04:24;;;;;;;10.38;6.72;;;27.00;99.90;;;;;;1862046;76;21161;-81
2022/06/18 00:06:57;;;;;;;9.68;6.42;;;27.00;99.90;;;;;;1865909;76;21138;-81
2022/06/18 00:09:30;;;;;;;10.93;6.85;;;27.10;99.90;;;;;;1868230;74;21146;-83
2022/06/18 00:14:36;;;;;;;8.63;6.00;;;27.10;99.90;;;;;;1866582;76;21088;-84
2022/06/18 00:17:11;;;;;;;13.08;6.95;;;27.10;99.90;;;;;;1868691;77;21188;-82
2022/06/18 00:19:42;;;;;;;12.63;6.53;;;27.10;99.90;;;;;;1870580;74;21079;-82
2022/06/18 00:22:16;;;;;;;8.43;6.55;;;27.10;99.90;;;;;;1869456;75;21402;-83
2022/06/18 00:24:47;;;;;;;10.35;6.78;;;27.10;99.90;;;;;;1870117;75;21072;-83
2022/06/18 00:27:19;;;;;;;9.03;6.03;;;27.10;99.90;;;;;;1860243;76;21267;-84
2022/06/18 00:29:51;;;;;;;8.13;5.70;;;27.10;99.90;;;;;;1870713;76;21150;-84
2022/06/18 00:32:22;;;;;;;8.48;5.65;;;27.10;99.90;;;;;;1857576;76;21760;-84
2022/06/18 00:34:54;;;;;;;9.60;5.25;;;27.10;99.90;;;;;;1864897;77;21161;-83
2022/06/18 00:37:26;;;;;;;7.53;5.28;;;27.20;99.90;;;;;;1865460;76;21672;-83
2022/06/18 00:39:57;;;;;;;8.75;5.30;;;27.20;99.90;;;;;;1866413;76;21123;-82
2022/06/18 00:42:30;;;;;;;8.15;5.45;;;27.20;99.90;;;;;;1864907;76;21221;-88
2022/06/18 00:45:02;;;;;;;7.67;5.10;;;27.30;99.70;;;;;;1865318;77;21135;-85
2022/06/18 00:47:36;;;;;;;7.87;4.85;;;27.30;99.80;;;;;;1866983;76;21236;-85
2022/06/18 00:50:09;;;;;;;9.05;4.58;;;27.30;99.60;;;;;;1861117;76;21209;-82
2022/06/18 00:52:42;;;;;;;8.30;4.62;;;27.30;99.40;;;;;;1845103;77;21182;-83
2022/06/18 00:55:16;;;;;;;7.58;4.03;;;27.40;99.50;;;;;;1865909;76;21155;-83
2022/06/18 00:57:49;;;;;;;9.73;4.05;;;27.40;99.20;;;;;;1865464;76;21162;-83
2022/06/18 01:00:22;;;;;;;9.05;4.05;;;27.40;99.10;;;;;;1868808;76;21515;-83
2022/06/18 01:02:53;;;;;;;7.95;4.25;;;27.40;99.10;;;;;;1854730;75;21764;-83
2022/06/18 01:05:27;;;;;;;8.93;3.80;;;27.50;99.10;;;;;;1867850;75;21537;-83
2022/06/18 01:08:00;;;;;;;7.47;3.47;;;27.50;98.90;;;;;;1788726;78;21170;-84
2022/06/18 01:10:33;;;;;;;7.25;3.37;;;27.50;98.90;;;;;;1795927;79;21654;-83
2022/06/18 01:13:07;;;;;;;4.90;3.27;;;27.60;98.60;;;;;;1865749;76;21192;-83
2022/06/18 01:15:38;;;;;;;7.97;3.98;;;27.70;98.50;;;;;;1817262;78;21162;-83
2022/06/18 01:18:10;;;;;;;4.72;3.00;;;27.80;98.60;;;;;;1858427;76;21559;-83
2022/06/18 01:20:43;;;;;;;8.40;3.47;;;27.80;98.00;;;;;;1866138;76;21064;-83
2022/06/18 01:23:17;;;;;;;5.42;3.10;;;27.90;98.20;;;;;;1864860;76;21645;-84
2022/06/18 01:25:48;;;;;;;6.35;3.60;;;27.90;98.00;;;;;;1864634;75;21105;-85
2022/06/18 01:28:20;;;;;;;4.58;2.83;;;28.00;97.50;;;;;;1878557;75;21178;-83
2022/06/18 01:30:51;;;;;;;6.08;3.45;;;28.10;97.70;;;;;;1890751;74;21150;-84
2022/06/18 01:33:22;;;;;;;10.38;3.05;;;28.20;97.70;;;;;;1882814;74;21143;-83
2022/06/18 01:35:55;;;;;;;9.40;3.50;;;28.30;97.50;;;;;;1887755;74;21186;-83
2022/06/18 01:38:26;;;;;;;6.22;3.20;;;28.40;97.10;;;;;;1874237;74;21937;-83
2022/06/18 01:41:49;;;;;;;7.20;3.20;;;28.40;96.90;;;;;;1896994;74;21590;-83
2022/06/18 01:43:32;;;;;;;5.75;3.20;;;28.60;96.80;;;;;;1889682;74;21165;-83
2022/06/18 01:46:03;;;;;;;4.90;2.67;;;28.70;96.30;;;;;;1880004;75;21197;-82
2022/06/18 01:48:37;;;;;;;9.30;2.85;;;28.70;95.90;;;;;;1877602;74;21188;-83
2022/06/18 01:51:10;;;;;;;4.17;2.33;;;28.80;96.10;;;;;;1855716;76;21495;-83
2022/06/18 01:53:43;;;;;;;4.87;2.50;;;28.90;96.20;;;;;;1891341;74;21192;-84
2022/06/18 01:56:27;;;;;;;4.60;2.33;;;28.90;95.10;;;;;;1880737;75;21187;-81
2022/06/18 01:59:00;;;;;;;4.22;2.65;;;28.90;95.20;;;;;;1898872;74;21575;-83
2022/06/18 02:01:34;;;;;;;5.95;2.60;;;28.90;95.60;;;;;;1873995;75;21135;-83
2022/06/18 02:04:05;;;;;;;4.20;2.10;;;28.90;95.20;;;;;;1881084;75;21146;-83
2022/06/18 02:06:38;;;;;;;6.40;2.92;;;28.90;95.10;;;;;;1882140;74;21185;-82
2022/06/18 02:09:21;;;;;;;8.80;2.05;;;28.80;95.40;;;;;;1891222;74;21047;-83
2022/06/18 02:11:50;;;;;;;8.13;2.52;;;28.90;95.90;;;;;;1873808;74;21571;-84
2022/06/18 02:14:23;;;;;;;7.35;2.75;;;28.90;95.50;;;;;;1888378;75;21535;-83
2022/06/18 02:16:56;;;;;;;6.28;2.72;;;29.00;95.40;;;;;;1877477;74;21216;-83
2022/06/18 02:19:28;;;;;;;7.40;3.02;;;29.00;95.40;;;;;;1905571;74;21720;-84
2022/06/18 02:22:01;;;;;;;5.70;2.60;;;29.00;95.70;;;;;;1876188;76;21162;-83
2022/06/18 02:24:32;;;;;;;5.12;2.45;;;29.00;95.20;;;;;;1891565;75;21224;-84
2022/06/18 02:27:03;;;;;;;6.97;3.15;;;29.00;95.20;;;;;;1878143;74;21155;-84
2022/06/18 02:29:37;;;;;;;9.75;3.58;;;29.10;94.90;;;;;;1879711;76;21151;-84
2022/06/18 02:32:10;;;;;;;4.92;2.70;;;29.10;94.60;;;;;;1845049;76;21224;-84
2022/06/18 02:34:41;;;;;;;6.60;3.20;;;29.20;94.70;;;;;;1872946;76;21154;-83
2022/06/18 02:37:14;;;;;;;5.30;2.77;;;29.30;95.20;;;;;;1875573;76;21084;-82
2022/06/18 02:39:48;;;;;;;5.95;2.95;;;29.40;94.80;;;;;;1877398;74;21630;-84
2022/06/18 02:42:20;;;;;;;6.12;3.00;;;29.50;94.50;;;;;;1878636;74;21163;-82
2022/06/18 02:44:51;;;;;;;5.58;2.90;;;29.60;94.50;;;;;;1878092;76;21480;-83
2022/06/18 02:47:22;;;;;;;4.80;3.33;;;29.60;94.70;;;;;;1876512;75;21102;-83
2022/06/18 02:49:56;;;;;;;7.47;3.52;;;29.70;94.20;;;;;;1872901;74;21202;-83
2022/06/18 02:52:29;;;;;;;8.10;3.42;;;29.90;93.90;;;;;;1884907;74;21182;-84
2022/06/18 02:55:03;;;;;;;9.23;3.45;;;29.90;93.60;;;;;;1869831;75;21107;-83
2022/06/18 02:57:34;;;;;;;8.23;3.85;;;30.10;94.40;;;;;;1876889;75;21190;-84
2022/06/18 03:00:08;;;;;;;5.87;3.85;;;30.20;94.00;;;;;;1874441;76;21196;-83
2022/06/18 03:02:39;;;;;;;12.73;3.47;;;30.40;93.80;;;;;;1871513;76;21221;-84
2022/06/18 03:05:13;;;;;;;7.78;3.12;;;30.60;92.90;;;;;;1875559;76;21131;-85
2022/06/18 03:07:44;;;;;;;10.08;3.58;;;30.60;92.50;;;;;;1873899;75;21583;-84
2022/06/18 03:12:47;;;;;;;6.80;3.15;;;30.90;92.60;;;;;;1876496;74;21626;-85
2022/06/18 03:15:18;;;;;;;6.20;3.65;;;31.00;92.40;;;;;;1888695;74;21162;-83
2022/06/18 03:17:49;;;;;;;7.15;3.42;;;31.10;91.60;;;;;;1914327;74;21618;-84
2022/06/18 03:20:22;;;;;;;6.50;3.15;;;31.10;91.80;;;;;;1857332;76;21762;-83
2022/06/18 03:22:53;;;;;;;8.58;3.55;;;31.20;92.20;;;;;;1852720;76;21158;-84
2022/06/18 03:25:25;;;;;;;6.25;3.47;;;31.30;91.50;;;;;;1888374;75;21056;-84
2022/06/18 03:27:56;;;;;;;6.28;3.30;;;31.40;90.70;;;;;;1804680;78;21174;-84
2022/06/18 03:30:28;;;;;;;8.45;3.50;;;31.50;91.20;;;;;;1869488;75;21176;-84
2022/06/18 03:32:59;;;;;;;4.72;2.45;;;31.60;89.20;;;;;;1803891;78;21077;-85
2022/06/18 03:35:30;;;;;;;4.67;2.40;;;31.70;88.90;;;;;;1817539;78;21466;-83
2022/06/18 03:38:01;;;;;;;5.12;2.83;;;31.80;86.10;;;;;;1821493;77;21135;-85
2022/06/18 03:40:32;;;;;;;3.37;2.62;;;31.80;87.50;;;;;;1803624;79;21128;-84
2022/06/18 03:43:04;;;;;;;4.70;2.52;;;31.80;87.40;;;;;;1825300;77;21187;-83
2022/06/18 03:45:38;;;;;;;4.40;2.77;;;31.80;88.50;;;;;;1822879;76;21096;-84
2022/06/18 03:48:13;;;;;;;4.97;2.75;;;32.00;90.50;;;;;;1818894;78;21143;-85
2022/06/18 03:50:44;;;;;;;6.20;2.83;;;32.00;89.40;;;;;;1858369;75;21203;-85
2022/06/18 03:53:15;;;;;;;3.55;2.30;;;31.90;88.20;;;;;;1856479;76;21201;-85
2022/06/18 03:55:49;;;;;;;8.18;2.83;;;31.90;88.00;;;;;;1879763;74;21072;-85
2022/06/18 03:58:20;;;;;;;6.75;3.00;;;31.80;86.50;;;;;;1891430;76;21083;-82
2022/06/18 04:00:52;;;;;;;4.35;3.27;;;31.70;86.90;;;;;;1894275;74;21162;-84
2022/06/18 04:03:23;;;;;;;5.00;3.08;;;31.80;88.30;;;;;;1879835;74;21204;-83
2022/06/18 04:05:55;;;;;;;4.28;2.70;;;31.70;87.40;;;;;;1890381;75;21106;-84
2022/06/18 04:08:26;;;;;;;5.05;2.70;;;31.80;87.10;;;;;;1876436;76;21594;-83
2022/06/18 04:10:58;;;;;;;4.83;3.00;;;31.80;87.40;;;;;;1887535;74;21141;-83
2022/06/18 04:13:29;;;;;;;4.00;2.50;;;32.00;87.90;;;;;;1899519;74;21668;-83
2022/06/18 04:16:10;;;;;;;4.85;3.10;;;31.90;86.50;;;;;;1882425;75;21576;-85
2022/06/18 04:18:56;;;;;;;5.05;2.52;;;32.00;86.30;;;;;;1881547;75;21040;-82
2022/06/18 04:21:56;;;;;;;4.70;2.45;;;32.00;85.80;;;;;;1884685;74;21572;-84
2022/06/18 04:24:27;;;;;;;4.55;2.12;;;32.00;86.00;;;;;;1921025;72;21160;-83
2022/06/18 04:26:58;;;;;;;4.80;2.25;;;32.10;85.20;;;;;;1906591;74;21249;-81
2022/06/18 04:29:29;;;;;;;4.08;2.15;;;32.10;84.90;;;;;;1920139;73;21124;-84
2022/06/18 04:32:00;;;;;;;3.98;2.52;;;32.20;84.80;;;;;;1934868;73;21616;-83
2022/06/18 04:34:33;;;;;;;4.45;2.30;;;32.30;84.30;;;;;;1927641;73;21561;-84
2022/06/18 04:37:07;;;;;;;4.35;2.20;;;32.50;83.70;;;;;;1910431;74;21440;-84
2022/06/18 04:39:39;;;;;;;3.98;2.15;;;32.50;84.30;;;;;;1906885;74;21190;-84
2022/06/18 04:42:10;;;;;;;3.65;1.80;;;32.60;83.60;;;;;;1920722;74;21839;-85
2022/06/18 04:44:44;;;;;;;4.05;1.90;;;32.80;80.80;;;;;;1894195;74;21084;-84
2022/06/18 04:47:15;;;;;;;3.85;1.52;;;32.80;81.70;;;;;;1944172;73;21123;-84
2022/06/18 04:49:46;;;;;;;5.45;1.92;;;32.70;80.80;;;;;;1893500;74;21703;-86
2022/06/18 04:52:17;;;;;;;3.58;1.80;;;32.70;82.20;;;;;;1895836;74;21768;-86
2022/06/18 04:54:52;;;;;;;7.92;2.10;;;32.70;81.10;;;;;;1917385;73;21310;-84
2022/06/18 04:57:23;;;;;;;3.02;1.80;;;32.70;81.60;;;;;;1928613;73;21128;-84
2022/06/18 04:59:55;;;;;;;5.72;2.05;;;32.80;82.50;;;;;;1958846;73;21181;-84
2022/06/18 05:02:32;;;;;;;5.12;1.90;;;32.80;80.50;;;;;;1933681;73;21123;-84
2022/06/18 05:05:06;;;;;;;6.55;1.52;;;32.90;80.30;;;;;;1944608;73;21123;-84
2022/06/18 05:07:37;;;;;;;4.28;1.75;;;32.90;80.10;;;;;;1940029;73;21484;-84
2022/06/18 05:10:09;;;;;;;3.33;1.62;;;33.00;80.40;;;;;;1921442;73;21161;-85
2022/06/18 05:12:41;;;;;;;2.15;1.50;;;33.00;79.60;;;;;;1936184;73;21162;-83
2022/06/18 05:15:13;;;;;;;4.53;1.80;;;32.90;79.80;;;;;;1957621;73;21257;-83
2022/06/18 05:17:45;;;;;;;3.15;1.62;;;32.80;81.10;;;;;;1941341;73;21092;-84
2022/06/18 05:20:21;;;;;;;4.67;1.75;;;32.80;81.40;;;;;;1909813;73;21113;-86
2022/06/18 05:22:53;;;;;;;4.58;1.57;;;32.80;82.00;;;;;;1896557;74;21082;-83
2022/06/18 05:25:25;;;;;;;4.72;1.65;;;32.90;81.90;;;;;;1908724;74;21639;-83
2022/06/18 05:27:56;;;;;;;3.08;1.55;;;33.10;82.20;;;;;;1924359;74;21629;-83
2022/06/18 05:30:28;;;;;;;3.83;1.72;;;33.30;80.10;;;;;;1882176;75;21138;-84
2022/06/18 05:32:59;;;;;;;4.28;1.87;;;33.40;79.90;;;;;;1915895;73;21165;-83
2022/06/18 05:35:30;;;;;;;13.03;3.00;;;33.60;79.50;;;;;;1928226;74;21150;-82
2022/06/18 05:38:03;;;;;;;3.00;1.50;;;33.70;79.80;;;;;;1904545;74;21127;-86
2022/06/18 05:40:34;;;;;;;2.05;1.30;;;33.80;77.70;;;;;;1927796;74;21198;-86
2022/06/18 05:43:05;;;;;;;2.35;1.35;;;33.80;76.60;;;;;;1950313;73;21113;-85
2022/06/18 05:45:36;;;;;;;5.72;1.85;;;33.80;78.80;;;;;;1885941;75;21146;-85
2022/06/18 05:48:10;;;;;;;3.33;1.70;;;33.80;78.80;;;;;;1924364;73;21215;-83
2022/06/18 05:50:42;;;;;;;2.22;1.37;;;33.80;77.00;;;;;;1902099;74;21085;-83
2022/06/18 05:53:13;;;;;;;4.92;1.62;;;33.90;77.10;;;;;;1924951;73;21554;-83
2022/06/18 05:55:44;;;;;;;3.37;1.40;;;34.00;77.10;;;;;;1898373;73;21128;-84
2022/06/18 05:58:15;;;;;;;3.27;1.10;;;34.10;73.40;;;;;;1913118;74;21139;-85
2022/06/18 06:00:46;;;;;;;2.80;1.32;;;34.10;74.50;;;;;;1905845;74;21652;-83
2022/06/18 06:03:17;;;;;;;2.40;1.20;;;34.10;73.10;;;;;;1903766;74;21247;-84
2022/06/18 06:05:48;;;;;;;2.90;1.10;;;34.10;72.80;;;;;;1912681;73;21142;-83
2022/06/18 06:08:19;;;;;;;3.85;0.98;;;34.10;73.40;;;;;;1910040;74;21101;-86
2022/06/18 06:13:22;;;;;;;3.65;1.22;;;34.20;74.90;;;;;;1937053;73;21632;-84
2022/06/18 06:15:54;;;;;;;2.12;1.10;;;34.20;74.30;;;;;;1953316;72;21130;-84
2022/06/18 06:18:27;;;;;;;3.15;1.20;;;34.10;75.40;;;;;;1962175;71;21155;-83
2022/06/18 06:21:00;;;;;;;4.53;1.35;;;34.20;75.10;;;;;;1958361;71;21373;-85
2022/06/18 06:23:31;;;;;;;2.47;1.27;;;34.20;76.10;;;;;;1956840;71;21056;-86
2022/06/18 06:26:04;;;;;;;2.25;1.45;;;34.20;73.90;;;;;;1878726;74;21103;-82
2022/06/18 06:28:35;;;;;;;3.95;1.40;;;34.30;73.70;;;;;;1936248;73;21133;-83
2022/06/18 06:31:05;;;;;;;3.12;0.95;;;34.30;74.70;;;;;;1940419;73;21027;-83
2022/06/18 06:33:36;;;;;;;2.60;1.27;;;34.30;73.80;;;;;;1929010;73;21121;-83
2022/06/18 06:36:09;;;;;;;6.17;1.30;;;34.30;75.20;;;;;;1934056;73;21141;-83
2022/06/18 06:38:41;;;;;;;1.98;1.10;;;34.30;75.80;;;;;;1939646;74;21218;-84
2022/06/18 06:41:15;;;;;;;3.30;1.00;;;34.30;75.60;;;;;;1915711;74;21059;-83
2022/06/18 06:43:45;;;;;;;2.52;1.00;;;34.20;74.90;;;;;;1913282;74;21110;-84
2022/06/18 06:46:18;;;;;;;2.42;1.05;;;34.20;75.60;;;;;;1924559;74;21134;-85
2022/06/18 06:48:49;;;;;;;4.12;1.40;;;34.00;75.90;;;;;;1922217;74;21118;-83
2022/06/18 06:51:22;;;;;;;3.27;1.12;;;34.00;75.80;;;;;;1913278;74;21126;-84
2022/06/18 06:53:54;;;;;;;2.02;1.20;;;33.90;75.40;;;;;;1928506;73;21035;-83
2022/06/18 06:58:58;;;;;;;3.95;1.50;;;33.70;76.90;;;;;;1911430;73;21203;-87
2022/06/18 07:01:29;;;;;;;3.50;1.17;;;33.70;77.50;;;;;;1926664;74;21142;-85
2022/06/18 07:04:00;;;;;;;2.83;1.35;;;33.80;76.50;;;;;;1918078;73;21574;-84
2022/06/18 07:06:31;;;;;;;3.30;1.52;;;33.80;77.10;;;;;;1910972;73;21115;-84
2022/06/18 07:09:03;;;;;;;2.85;1.30;;;33.80;76.50;;;;;;1933831;73;21169;-84
2022/06/18 07:11:37;;;;;;;2.10;1.30;;;33.90;77.60;;;;;;1884214;74;21097;-84
2022/06/18 07:14:08;;;;;;;3.77;2.12;;;33.90;75.50;;;;;;1920066;73;21121;-85
2022/06/18 07:16:41;;;;;;;3.25;1.32;;;33.90;76.80;;;;;;1897802;74;21146;-84
2022/06/18 07:19:12;;;;;;;6.85;1.60;;;33.90;75.90;;;;;;1948835;72;21060;-84
2022/06/18 07:21:43;;;;;;;5.97;2.17;;;33.90;77.40;;;;;;1914069;73;21175;-85
2022/06/18 07:24:14;;;;;;;3.98;2.12;;;33.90;78.70;;;;;;1913076;74;21143;-85
2022/06/18 07:26:45;;;;;;;3.45;2.45;;;33.90;80.20;;;;;;1862006;75;21188;-84
2022/06/18 07:29:20;;;;;;;4.47;1.85;;;33.90;80.30;;;;;;1910750;74;21330;-84
2022/06/18 07:31:48;;;;;;;3.37;2.00;;;33.90;79.70;;;;;;1896170;74;21116;-85
2022/06/18 07:34:19;;;;;;;5.45;2.50;;;33.90;79.60;;;;;;1902123;74;21625;-84
2022/06/18 07:36:50;;;;;;;4.05;1.80;;;34.00;79.70;;;;;;1897507;74;21159;-85
2022/06/18 07:39:21;;;;;;;5.08;1.72;;;34.00;80.60;;;;;;1857673;76;21186;-85
2022/06/18 07:41:54;;;;;;;4.05;1.57;;;34.10;79.30;;;;;;1858523;76;21065;-85
2022/06/18 07:44:26;;;;;;;5.25;2.00;;;34.00;80.20;;;;;;1856614;76;21071;-85
2022/06/18 07:47:05;;;;;;;5.28;2.02;;;34.10;80.30;;;;;;1889654;76;21647;-84
2022/06/18 07:49:31;;;;;;;2.85;1.77;;;34.00;79.50;;;;;;1864345;76;21665;-84
2022/06/18 07:52:02;;;;;;;5.78;1.80;;;34.00;78.10;;;;;;1905597;74;21048;-84
2022/06/18 07:54:33;;;;;;;5.17;2.02;;;33.90;78.30;;;;;;1889628;76;21098;-83
2022/06/18 07:57:04;;;;;;;5.60;2.17;;;33.80;78.00;;;;;;1862437;76;21580;-85
2022/06/18 07:59:40;;;;;;;5.53;1.45;;;33.80;78.30;;;;;;1870177;76;21598;-85
2022/06/18 08:02:09;;;;;;;4.25;1.62;;;33.80;78.70;;;;;;1886885;76;21084;-84
2022/06/18 08:04:40;;;;;;;5.42;2.02;;;33.80;77.90;;;;;;1884128;74;21495;-84
2022/06/18 08:07:11;;;;;;;2.90;1.60;;;33.80;78.00;;;;;;1856821;76;21088;-84
2022/06/18 08:09:43;;;;;;;4.35;1.82;;;33.80;78.80;;;;;;1882936;76;21621;-84
2022/06/18 08:12:15;;;;;;;5.05;1.77;;;33.80;78.40;;;;;;1859835;76;21580;-84
2022/06/18 08:14:46;;;;;;;5.50;1.60;;;33.80;77.60;;;;;;1892354;74;21172;-85
2022/06/18 08:17:17;;;;;;;4.58;1.95;;;33.60;77.30;;;;;;1899497;74;21150;-84
2022/06/18 08:19:48;;;;;;;4.00;1.60;;;33.60;78.30;;;;;;1896075;74;21114;-84
2022/06/18 08:22:22;;;;;;;2.42;1.52;;;33.60;77.90;;;;;;1901911;74;21138;-84
2022/06/18 08:24:54;;;;;;;4.72;1.98;;;33.60;78.10;;;;;;1905180;74;21192;-84
2022/06/18 08:27:25;;;;;;;4.90;1.82;;;33.50;78.30;;;;;;1897303;74;21178;-84
2022/06/18 08:29:57;;;;;;;4.97;2.10;;;33.50;77.80;;;;;;1861132;75;21143;-86
2022/06/18 08:32:31;;;;;;;5.03;2.08;;;33.50;78.70;;;;;;1912620;74;21747;-84
2022/06/18 08:35:02;;;;;;;3.12;1.65;;;33.50;78.10;;;;;;1912361;74;21119;-83
2022/06/18 08:37:51;;;;;;;3.87;1.92;;;33.50;77.80;;;;;;1924601;74;21908;-85
2022/06/18 08:43:00;;;;;;;5.20;2.05;;;33.40;78.40;;;;;;1914296;74;21239;-84
2022/06/18 08:45:34;;;;;;;4.70;2.30;;;33.50;78.20;;;;;;1917067;74;21138;-85
2022/06/18 08:48:11;;;;;;;4.53;2.50;;;33.50;78.20;;;;;;1924136;74;21053;-84
2022/06/18 08:50:44;;;;;;;4.65;2.15;;;33.40;78.60;;;;;;1924712;74;21151;-84
2022/06/18 08:53:20;;;;;;;4.67;1.92;;;33.40;78.20;;;;;;1921035;74;21076;-85
2022/06/18 08:55:54;;;;;;;4.72;1.80;;;33.40;78.00;;;;;;1908803;74;21273;-83
2022/06/18 08:58:28;;;;;;;3.72;1.80;;;33.30;77.70;;;;;;1910779;74;21118;-85
2022/06/18 09:01:02;;;;;;;4.15;1.75;;;33.30;78.60;;;;;;1907211;74;21190;-86
2022/06/18 09:03:35;;;;;;;4.95;1.85;;;33.30;78.30;;;;;;1908674;74;21174;-84
2022/06/18 09:06:09;;;;;;;4.95;1.98;;;33.20;78.60;;;;;;1909678;74;21333;-85
2022/06/18 09:08:42;;;;;;;6.40;2.00;;;33.30;79.40;;;;;;1912444;73;21166;-84
2022/06/18 09:11:15;;;;;;;6.62;2.95;;;33.30;78.70;;;;;;1906152;74;21244;-85
2022/06/18 09:13:48;;;;;;;4.00;1.95;;;33.30;79.10;;;;;;1907529;74;21252;-84
2022/06/18 09:16:22;;;;;;;2.75;1.45;;;33.30;79.40;;;;;;1922328;74;21236;-84
2022/06/18 09:18:55;;;;;;;4.20;1.70;;;33.30;77.80;;;;;;1923065;74;21570;-84
2022/06/18 09:21:32;;;;;;;4.40;1.50;;;33.30;77.90;;;;;;1904842;74;21154;-84
2022/06/18 09:24:06;;;;;;;5.97;2.10;;;33.30;78.40;;;;;;1923280;74;21111;-83
2022/06/18 09:26:39;;;;;;;4.10;1.77;;;33.30;79.30;;;;;;1920068;74;21171;-84
2022/06/18 09:29:13;;;;;;;4.50;1.85;;;33.40;78.80;;;;;;1907965;74;21187;-84
2022/06/18 09:31:46;;;;;;;3.10;1.60;;;33.40;78.00;;;;;;1854992;76;21088;-84
2022/06/18 09:34:20;;;;;;;2.40;1.20;;;33.50;77.90;;;;;;1882749;76;21174;-83
2022/06/18 09:36:53;;;;;;;4.10;1.40;;;33.50;77.80;;;;;;1886207;74;21712;-83
2022/06/18 09:39:27;;;;;;;4.00;1.50;;;33.50;78.70;;;;;;1891221;74;21205;-85
2022/06/18 09:42:00;;;;;;;6.25;1.57;;;33.50;78.00;;;;;;1858932;76;21153;-83
2022/06/18 09:44:33;;;;;;;4.28;1.47;;;33.50;76.90;;;;;;1870531;76;21709;-82
2022/06/18 09:47:07;;;;;;;2.17;1.20;;;33.50;76.10;;;;;;1859261;76;21178;-82
2022/06/18 09:49:39;;;;;;;3.98;1.60;;;33.40;76.70;;;;;;1898463;74;22121;-83
2022/06/18 09:52:15;;;;;;;3.55;1.60;;;33.40;76.10;;;;;;1891965;74;21832;-84
2022/06/18 09:54:49;;;;;;;4.72;2.10;;;33.40;77.20;;;;;;1868807;76;21502;-84
2022/06/18 09:57:22;;;;;;;6.45;2.70;;;33.40;77.20;;;;;;1872936;75;21292;-84
2022/06/18 09:59:56;;;;;;;3.12;1.87;;;33.50;76.80;;;;;;1862759;76;21632;-84
2022/06/18 10:02:30;;;;;;;9.33;2.40;;;33.50;76.50;;;;;;1855488;76;21697;-83
2022/06/18 10:07:36;;;;;;;4.35;2.40;;;33.60;76.30;;;;;;1879463;74;21119;-83
2022/06/18 10:10:10;;;;;;;3.72;1.90;;;33.60;76.00;;;;;;1853208;76;21646;-82
2022/06/18 10:12:43;;;;;;;5.95;1.65;;;33.50;75.20;;;;;;1859326;76;21637;-85
2022/06/18 10:15:17;;;;;;;3.25;2.00;;;33.50;75.40;;;;;;1883688;76;21210;-85
2022/06/18 10:17:50;;;;;;;3.95;1.85;;;33.50;76.70;;;;;;1887522;76;21139;-82
2022/06/18 10:20:24;;;;;;;4.45;2.08;;;33.50;76.10;;;;;;1862029;76;21220;-83
2022/06/18 10:22:57;;;;;;;4.92;2.08;;;33.50;76.70;;;;;;1878722;76;21708;-84
2022/06/18 10:25:30;;;;;;;5.22;2.10;;;33.50;76.40;;;;;;1885283;76;22220;-83
2022/06/18 10:28:04;;;;;;;5.53;2.02;;;33.40;76.50;;;;;;1855614;76;21168;-83
2022/06/18 10:30:37;;;;;;;3.90;2.10;;;33.40;76.30;;;;;;1862523;76;21253;-85
2022/06/18 10:33:10;;;;;;;3.65;1.80;;;33.40;76.40;;;;;;1868604;76;21103;-84
2022/06/18 10:35:44;;;;;;;4.45;1.75;;;33.40;76.40;;;;;;1896765;74;21048;-84
2022/06/18 10:38:17;;;;;;;6.78;2.08;;;33.40;76.40;;;;;;1876007;76;21244;-84
2022/06/18 10:40:51;;;;;;;5.08;2.37;;;33.30;76.90;;;;;;1876511;76;21145;-85
2022/06/18 10:43:24;;;;;;;5.03;2.40;;;33.30;76.40;;;;;;1888275;75;21623;-84
2022/06/18 10:46:00;;;;;;;8.05;2.95;;;33.20;77.30;;;;;;1861686;76;21080;-83
2022/06/18 10:48:33;;;;;;;5.62;2.80;;;33.20;77.80;;;;;;1907869;74;21535;-83
2022/06/18 10:51:04;;;;;;;3.65;1.92;;;33.20;76.70;;;;;;1844461;77;21111;-84
2022/06/18 10:53:38;;;;;;;5.00;2.22;;;33.10;77.00;;;;;;1871476;76;21463;-84
2022/06/18 10:56:11;;;;;;;5.80;2.52;;;33.00;78.50;;;;;;1873890;76;21201;-83
2022/06/18 10:58:44;;;;;;;5.15;2.33;;;33.10;77.70;;;;;;1862694;76;21626;-83
2022/06/18 11:01:17;;;;;;;4.50;2.55;;;33.00;77.30;;;;;;1857226;76;21501;-84
2022/06/18 11:03:50;;;;;;;4.70;2.20;;;33.00;77.60;;;;;;1894405;75;21127;-84
2022/06/18 11:06:22;;;;;;;5.12;2.30;;;33.00;77.40;;;;;;1880426;75;21623;-84
2022/06/18 11:08:56;;;;;;;4.17;2.15;;;32.90;77.90;;;;;;1848811;76;21158;-84
2022/06/18 11:11:31;;;;;;;5.35;2.72;;;32.90;77.90;;;;;;1880165;76;21175;-83
2022/06/18 11:14:04;;;;;;;5.00;2.80;;;32.80;78.30;;;;;;1858036;76;21280;-84
2022/06/18 11:16:38;;;;;;;7.08;3.22;;;32.80;79.30;;;;;;1862272;76;21234;-84
2022/06/18 11:19:11;;;;;;;8.25;2.98;;;32.80;80.10;;;;;;1896429;75;21094;-84
2022/06/18 11:21:43;;;;;;;6.12;3.22;;;32.80;81.00;;;;;;1894685;74;21212;-84
2022/06/18 11:24:17;;;;;;;8.78;3.35;;;32.70;81.90;;;;;;1870261;76;21072;-84
2022/06/18 11:26:50;;;;;;;7.70;3.90;;;32.70;82.40;;;;;;1890410;76;21112;-84
2022/06/18 11:29:26;;;;;;;7.70;3.40;;;32.70;82.90;;;;;;1856849;76;21146;-83
2022/06/18 11:31:59;;;;;;;7.10;3.83;;;32.60;83.00;;;;;;1868082;76;21606;-83
2022/06/18 11:35:42;;;;;;;6.75;3.72;;;32.50;83.00;;;;;;1895473;76;21197;-85
2022/06/18 11:37:33;;;;;;;6.08;3.75;;;32.50;83.20;;;;;;1846113;76;21174;-84
2022/06/18 11:40:06;;;;;;;6.87;3.87;;;32.40;83.40;;;;;;1874248;76;22277;-82
2022/06/18 11:42:39;;;;;;;8.50;3.85;;;32.40;83.50;;;;;;1840077;77;21176;-83
2022/06/18 11:45:14;;;;;;;8.78;4.30;;;32.30;83.60;;;;;;1869210;76;21166;-83
2022/06/18 11:47:50;;;;;;;10.90;4.72;;;32.30;83.40;;;;;;1865053;75;21645;-82
2022/06/18 11:50:29;;;;;;;10.58;4.25;;;32.30;83.60;;;;;;1877091;76;21166;-84
2022/06/18 11:53:02;;;;;;;9.08;4.45;;;32.20;83.60;;;;;;1868127;76;21088;-83
2022/06/18 11:55:38;;;;;;;8.10;4.17;;;32.20;83.60;;;;;;1842711;77;21211;-85
2022/06/18 11:58:30;;;;;;;9.73;4.12;;;32.20;83.80;;;;;;1858505;76;21208;-83
2022/06/18 12:01:03;;;;;;;9.70;4.35;;;32.20;83.90;;;;;;1865493;76;21128;-83
2022/06/18 12:03:37;;;;;;;8.38;4.05;;;32.10;83.90;;;;;;1876667;76;21139;-84
2022/06/18 12:06:15;;;;;;;9.15;4.50;;;32.10;83.90;;;;;;1875230;76;21194;-84
2022/06/18 12:08:55;;;;;;;;;;;32.10;84.00;;;;;;1875918;75;21165;-83
2022/06/18 12:11:31;;;;;;;11.53;4.45;;;32.10;84.10;;;;;;1862224;76;20211;-82
2022/06/18 12:14:05;;;;;;;9.45;4.97;;;32.00;84.10;;;;;;1870948;76;21268;-84
2022/06/18 12:16:41;;;;;;;9.95;3.75;;;32.10;84.30;;;;;;1842137;77;21085;-84
2022/06/18 12:19:30;;;;;;;;;;;;;;;;;;;;;
2022/06/18 12:21:59;;;;;;;8.35;4.05;;;32.00;84.00;;;;;;1867176;75;21567;-84
2022/06/18 12:24:32;;;;;;;9.10;4.30;;;32.00;83.80;;;;;;1859108;76;21670;-84
2022/06/18 12:27:06;;;;;;;6.65;4.00;;;32.00;84.20;;;;;;1874453;76;21197;-83
2022/06/18 12:29:40;;;;;;;8.35;4.05;;;32.00;83.90;;;;;;1841551;76;21915;-84
2022/06/18 12:32:15;;;;;;;10.13;4.37;;;32.00;83.90;;;;;;1868350;76;21192;-85
2022/06/18 12:34:49;;;;;;;6.08;4.05;;;31.90;83.80;;;;;;1854037;76;21090;-84
2022/06/18 12:37:22;;;;;;;7.72;4.00;;;31.90;83.70;;;;;;1897578;75;21159;-84
2022/06/18 12:39:56;;;;;;;9.43;4.05;;;31.90;83.60;;;;;;1894943;75;21086;-81
2022/06/18 12:42:30;;;;;;;6.03;3.65;;;31.90;83.40;;;;;;1848153;76;21188;-83
2022/06/18 12:45:03;;;;;;;7.03;3.62;;;31.90;83.60;;;;;;1860073;76;21092;-83
2022/06/18 12:47:40;;;;;;;10.15;4.35;;;31.90;83.60;;;;;;1858223;76;21181;-83
2022/06/18 12:50:14;;;;;;;7.28;3.83;;;31.80;83.60;;;;;;1890179;75;21157;-83
2022/06/18 12:52:47;;;;;;;9.60;4.25;;;31.90;83.80;;;;;;1902513;75;21062;-83
2022/06/18 12:55:20;;;;;;;8.38;4.10;;;31.90;84.00;;;;;;1871003;76;21091;-85
2022/06/18 12:57:54;;;;;;;6.37;4.05;;;31.80;84.00;;;;;;1877375;75;21158;-83
2022/06/18 13:00:27;;;;;;;8.08;3.83;;;31.80;84.10;;;;;;1893826;75;21107;-83
2022/06/18 13:03:00;;;;;;;10.03;4.58;;;31.80;83.90;;;;;;1888994;74;21211;-84
2022/06/18 13:05:34;;;;;;;8.28;4.25;;;31.80;84.00;;;;;;1863746;75;21160;-84
2022/06/18 13:08:14;;;;;;;10.48;4.65;;;31.80;84.10;;;;;;1882702;74;21119;-84
2022/06/18 13:10:46;;;;;;;8.18;4.92;;;31.70;84.20;;;;;;1841540;75;21156;-84
2022/06/18 13:13:19;;;;;;;9.55;4.97;;;31.70;84.60;;;;;;1883472;74;21118;-84
2022/06/18 13:15:53;;;;;;;9.75;4.90;;;31.70;84.70;;;;;;1860386;74;21110;-84
2022/06/18 13:18:29;;;;;;;7.55;4.83;;;31.70;84.80;;;;;;1868967;74;21146;-83
2022/06/18 13:21:02;;;;;;;8.63;5.05;;;31.70;84.80;;;;;;1872996;74;21100;-84
2022/06/18 13:28:42;;;;;;;10.10;5.70;;;31.60;85.50;;;;;;1845941;77;21268;-86
2022/06/18 13:31:16;;;;;;;12.65;5.08;;;31.60;85.50;;;;;;1861195;75;21068;-85
2022/06/18 13:33:50;;;;;;;8.30;4.87;;;31.60;85.50;;;;;;1881758;74;21209;-84
2022/06/18 13:36:24;;;;;;;9.10;5.00;;;31.60;85.60;;;;;;1889781;74;21140;-84
2022/06/18 13:38:57;;;;;;;13.28;5.65;;;31.60;85.90;;;;;;1897138;73;21289;-84